Time;durP1;ratioP1;P1;durP2;ratioP2;P2;SDS_P1;SDS_P2;PMS_P1;PMS_P2;Temp;Humidity;BMP_temperature;BMP_pressure;BME280_temperature;BME280_humidity;BME280_pressure;Samples;Min_cycle;Max_cycle;Signal;HPM_P1;HPM_P2
2022/11/12 00:01:05;;;;;;;20.08;8.85;;;8.10;99.90;;;;;;4958166;28;20035;-68
2022/11/12 00:03:30;;;;;;;27.88;10.25;;;8.10;99.90;;;;;;4956629;29;20035;-68
2022/11/12 00:05:55;;;;;;;31.05;9.63;;;8.30;99.90;;;;;;4957637;29;20027;-68
2022/11/12 00:08:21;;;;;;;45.22;9.55;;;8.30;99.90;;;;;;4973751;28;20058;-68
2022/11/12 00:10:47;;;;;;;24.08;9.60;;;8.30;99.90;;;;;;4972600;28;20023;-68
2022/11/12 00:13:13;;;;;;;37.35;10.75;;;8.30;99.90;;;;;;4956368;29;20023;-68
2022/11/12 00:15:39;;;;;;;24.58;8.40;;;8.40;99.90;;;;;;4957399;29;20038;-68
2022/11/12 00:18:04;;;;;;;24.67;8.52;;;8.40;99.90;;;;;;4956286;29;20023;-68
2022/11/12 00:20:30;;;;;;;29.20;9.10;;;8.50;99.90;;;;;;4957546;29;20038;-68
2022/11/12 00:22:55;;;;;;;27.35;9.10;;;8.40;99.90;;;;;;4956104;29;20490;-68
2022/11/12 00:25:21;;;;;;;55.83;9.05;;;8.30;99.90;;;;;;4957627;29;20094;-68
2022/11/12 00:27:46;;;;;;;42.28;11.23;;;8.20;99.90;;;;;;4957214;29;20043;-67
2022/11/12 00:30:12;;;;;;;44.78;10.25;;;8.10;99.90;;;;;;4956390;29;20028;-68
2022/11/12 00:32:38;;;;;;;43.03;10.70;;;8.10;99.90;;;;;;4957255;29;20030;-68
2022/11/12 00:35:04;;;;;;;43.55;11.25;;;8.10;99.90;;;;;;4957176;29;20035;-68
2022/11/12 00:37:30;;;;;;;39.95;8.98;;;8.10;99.90;;;;;;4957081;29;20042;-68
2022/11/12 00:39:56;;;;;;;43.45;11.32;;;8.10;99.90;;;;;;4957096;29;20027;-68
2022/11/12 00:42:21;;;;;;;31.77;10.30;;;8.10;99.90;;;;;;4956976;29;20050;-68
2022/11/12 00:44:48;;;;;;;36.50;10.00;;;8.10;99.90;;;;;;4956077;29;20039;-68
2022/11/12 00:47:14;;;;;;;42.15;11.35;;;8.20;99.90;;;;;;4957003;29;20062;-68
2022/11/12 00:49:40;;;;;;;62.92;10.98;;;8.20;99.90;;;;;;4955746;29;20023;-68
2022/11/12 00:52:05;;;;;;;59.40;10.98;;;8.20;99.90;;;;;;4956075;29;20023;-68
2022/11/12 00:54:31;;;;;;;60.05;10.05;;;8.20;99.90;;;;;;4956901;29;20106;-68
2022/11/12 00:56:56;;;;;;;30.17;10.13;;;8.00;99.90;;;;;;4955484;28;20059;-68
2022/11/12 00:59:22;;;;;;;41.30;10.55;;;8.10;99.90;;;;;;4955699;29;20035;-68
2022/11/12 01:01:48;;;;;;;80.20;12.00;;;8.00;99.90;;;;;;4955948;29;20066;-68
2022/11/12 01:04:14;;;;;;;112.30;13.02;;;8.00;99.90;;;;;;4956678;29;20027;-68
2022/11/12 01:06:40;;;;;;;78.95;11.93;;;7.80;99.90;;;;;;4955617;29;20027;-68
2022/11/12 01:09:06;;;;;;;74.93;13.32;;;7.80;99.90;;;;;;4955800;29;20062;-68
2022/11/12 01:11:32;;;;;;;41.08;10.85;;;7.70;99.90;;;;;;4955258;29;20038;-68
2022/11/12 01:14:08;;;;;;;55.28;10.70;;;7.80;99.90;;;;;;4955281;29;20023;-68
2022/11/12 01:16:37;;;;;;;46.63;11.73;;;7.70;99.90;;;;;;4955926;29;20031;-68
2022/11/12 01:19:05;;;;;;;72.32;13.50;;;7.60;99.90;;;;;;4955179;29;20031;-68
2022/11/12 01:21:32;;;;;;;28.63;9.68;;;7.60;99.90;;;;;;4955180;29;20035;-68
2022/11/12 01:23:59;;;;;;;42.75;10.55;;;7.80;99.90;;;;;;4956423;29;20035;-68
2022/11/12 01:26:27;;;;;;;43.65;11.13;;;7.80;99.90;;;;;;4955086;29;20031;-68
2022/11/12 01:28:53;;;;;;;64.28;11.10;;;7.90;99.90;;;;;;4956726;29;20031;-68
2022/11/12 01:31:22;;;;;;;64.63;10.88;;;8.00;99.90;;;;;;4955411;29;20027;-68
2022/11/12 01:33:52;;;;;;;77.47;13.25;;;7.80;99.90;;;;;;4955691;29;20063;-68
2022/11/12 01:36:17;;;;;;;73.82;10.40;;;7.70;99.90;;;;;;4955188;29;20038;-68
2022/11/12 01:38:44;;;;;;;62.45;11.68;;;7.70;99.90;;;;;;4956590;29;20031;-68
2022/11/12 01:41:13;;;;;;;71.57;12.20;;;7.80;99.90;;;;;;4961187;29;20033;-68
2022/11/12 01:43:39;;;;;;;80.75;11.93;;;7.80;99.90;;;;;;4955179;29;20041;-68
2022/11/12 01:46:20;;;;;;;35.88;10.45;;;7.80;99.90;;;;;;4954655;29;20126;-68
2022/11/12 01:48:51;;;;;;;39.55;10.35;;;7.80;99.90;;;;;;4956439;28;20027;-68
2022/11/12 01:51:20;;;;;;;46.17;10.35;;;7.90;99.90;;;;;;4955060;29;20433;-67
2022/11/12 01:53:48;;;;;;;48.95;9.82;;;7.90;99.90;;;;;;4956159;29;20070;-68
2022/11/12 01:56:16;;;;;;;40.78;10.18;;;8.00;99.90;;;;;;4955892;29;20031;-68
2022/11/12 01:58:44;;;;;;;35.35;10.15;;;8.10;99.90;;;;;;4955982;29;20031;-68
2022/11/12 02:01:09;;;;;;;67.55;10.70;;;8.10;99.90;;;;;;4956593;29;20081;-68
2022/11/12 02:03:35;;;;;;;49.70;12.43;;;8.10;99.90;;;;;;4956454;29;20102;-68
2022/11/12 02:06:06;;;;;;;30.35;10.50;;;8.20;99.90;;;;;;4955580;29;20028;-68
2022/11/12 02:08:34;;;;;;;32.17;9.75;;;8.20;99.90;;;;;;4956208;28;20063;-68
2022/11/12 02:11:15;;;;;;;47.88;9.60;;;8.30;99.90;;;;;;4955433;29;20034;-68
2022/11/12 02:13:56;;;;;;;29.40;8.88;;;8.30;99.90;;;;;;4956548;29;20025;-68
2022/11/12 02:16:34;;;;;;;25.58;9.18;;;8.20;99.90;;;;;;4959578;29;20027;-68
2022/11/12 02:19:01;;;;;;;25.85;9.57;;;8.20;99.90;;;;;;4960442;29;20059;-68
2022/11/12 02:21:27;;;;;;;35.85;9.93;;;8.30;99.90;;;;;;4956591;29;20034;-68
2022/11/12 02:24:00;;;;;;;32.95;9.80;;;8.40;99.90;;;;;;4957546;29;20023;-68
2022/11/12 02:26:30;;;;;;;68.18;10.68;;;8.40;99.90;;;;;;4955036;29;20110;-68
2022/11/12 02:28:56;;;;;;;38.28;9.55;;;8.20;99.90;;;;;;4954162;29;20051;-67
2022/11/12 02:31:21;;;;;;;46.90;10.02;;;8.20;99.90;;;;;;4958121;29;20027;-68
2022/11/12 02:33:47;;;;;;;28.48;9.30;;;8.10;99.90;;;;;;4955259;29;20102;-68
2022/11/12 02:36:12;;;;;;;36.40;10.30;;;8.20;99.90;;;;;;4955447;29;20038;-68
2022/11/12 02:38:38;;;;;;;50.13;10.25;;;8.20;99.90;;;;;;4955355;29;20027;-68
2022/11/12 02:41:03;;;;;;;32.00;9.18;;;8.20;99.90;;;;;;4953908;29;20035;-68
2022/11/12 02:43:29;;;;;;;39.97;9.98;;;8.30;99.90;;;;;;4955568;29;20042;-69
2022/11/12 02:45:55;;;;;;;36.38;10.07;;;8.40;99.90;;;;;;4955904;29;20039;-68
2022/11/12 02:48:20;;;;;;;57.67;10.80;;;8.30;99.90;;;;;;4955399;29;20031;-68
2022/11/12 02:50:46;;;;;;;30.88;9.80;;;8.10;99.90;;;;;;4954324;29;20055;-68
2022/11/12 02:53:12;;;;;;;26.08;8.43;;;8.20;99.90;;;;;;4955167;29;20034;-68
2022/11/12 02:55:38;;;;;;;24.42;8.27;;;8.40;99.90;;;;;;4953912;29;20028;-68
2022/11/12 02:58:03;;;;;;;40.40;8.90;;;8.40;99.90;;;;;;4954245;29;20027;-68
2022/11/12 03:00:29;;;;;;;66.90;9.50;;;8.50;99.90;;;;;;4953816;29;20031;-68
2022/11/12 03:03:00;;;;;;;48.78;9.80;;;8.40;99.90;;;;;;4956046;29;20027;-68
2022/11/12 03:05:31;;;;;;;46.67;9.18;;;8.40;99.90;;;;;;4954011;29;20027;-68
2022/11/12 03:08:06;;;;;;;42.03;9.68;;;8.40;99.90;;;;;;4954073;29;20030;-68
2022/11/12 03:10:32;;;;;;;71.68;10.05;;;8.30;99.90;;;;;;4953854;29;20031;-67
2022/11/12 03:12:59;;;;;;;47.50;8.60;;;8.20;99.90;;;;;;4955004;29;20024;-68
2022/11/12 03:15:26;;;;;;;52.38;10.40;;;8.30;99.90;;;;;;4955321;29;20028;-68
2022/11/12 03:17:52;;;;;;;64.18;9.80;;;8.30;99.90;;;;;;4956909;29;20091;-69
2022/11/12 03:20:17;;;;;;;63.92;9.20;;;8.20;99.90;;;;;;4957548;28;20031;-68
2022/11/12 03:22:57;;;;;;;82.60;11.15;;;8.10;99.90;;;;;;5015764;23;20053;-69
2022/11/12 03:25:24;;;;;;;135.10;12.38;;;8.00;99.90;;;;;;4999216;28;20545;-69
2022/11/12 03:28:05;;;;;;;93.00;11.60;;;7.80;99.90;;;;;;4999599;28;20481;-69
2022/11/12 03:30:33;;;;;;;60.38;9.00;;;7.50;99.90;;;;;;4999280;28;20113;-69
2022/11/12 03:32:58;;;;;;;90.47;10.48;;;7.40;99.90;;;;;;4997322;28;20031;-69
2022/11/12 03:35:25;;;;;;;99.82;11.40;;;7.40;99.90;;;;;;4997675;28;20031;-69
2022/11/12 03:37:51;;;;;;;54.58;11.18;;;7.50;99.90;;;;;;4979650;28;20039;-69
2022/11/12 03:40:17;;;;;;;94.45;10.55;;;7.60;99.90;;;;;;4997254;28;20032;-69
2022/11/12 03:42:48;;;;;;;47.58;9.27;;;7.60;99.90;;;;;;4996929;28;20065;-69
2022/11/12 03:45:14;;;;;;;36.30;8.55;;;7.70;99.90;;;;;;4980282;28;20077;-69
2022/11/12 03:47:54;;;;;;;73.35;8.63;;;7.70;99.90;;;;;;4979413;28;20036;-69
2022/11/12 03:50:21;;;;;;;35.35;8.82;;;7.60;99.90;;;;;;4996867;28;20030;-69
2022/11/12 03:52:49;;;;;;;46.95;8.85;;;7.70;99.90;;;;;;4979273;28;20036;-69
2022/11/12 03:55:16;;;;;;;47.83;8.93;;;7.60;99.90;;;;;;4996614;28;20417;-69
2022/11/12 03:57:42;;;;;;;30.33;7.82;;;7.70;99.90;;;;;;4979837;28;20053;-69
2022/11/12 04:00:09;;;;;;;56.33;8.70;;;7.80;99.90;;;;;;4979177;28;20022;-69
2022/11/12 04:02:35;;;;;;;59.08;9.85;;;7.90;99.90;;;;;;4996561;28;20489;-69
2022/11/12 04:10:34;;;;;;;27.00;7.15;;;7.70;99.90;;;;;;4997069;28;20037;-70
2022/11/12 04:15:43;;;;;;;22.92;7.82;;;7.60;99.90;;;;;;4996919;28;20053;-69
2022/11/12 04:23:38;;;;;;;14.90;4.75;;;7.80;99.90;;;;;;4996396;28;20088;-69
2022/11/12 04:26:22;;;;;;;26.15;6.15;;;8.00;99.90;;;;;;4996130;28;20026;-69
2022/11/12 04:31:32;;;;;;;20.42;5.78;;;8.00;99.90;;;;;;4996102;28;20081;-69
2022/11/12 04:34:27;;;;;;;15.05;5.07;;;7.70;99.90;;;;;;4978632;28;20030;-69
2022/11/12 04:36:43;;;;;;;14.70;5.85;;;7.70;99.90;;;;;;4995903;28;20034;-69
2022/11/12 04:39:08;;;;;;;19.70;5.93;;;7.80;99.90;;;;;;4978604;28;20122;-69
2022/11/12 04:47:02;;;;;;;17.45;6.38;;;7.90;99.90;;;;;;4996105;28;20029;-69
2022/11/12 04:49:27;;;;;;;18.25;5.55;;;7.80;99.90;;;;;;4978677;28;20022;-69
2022/11/12 04:52:05;;;;;;;18.73;5.55;;;7.90;99.90;;;;;;4978198;28;20018;-69
2022/11/12 04:54:31;;;;;;;13.52;5.50;;;7.90;99.90;;;;;;4978375;28;20053;-69
2022/11/12 04:56:56;;;;;;;17.70;5.40;;;7.90;99.90;;;;;;4978527;28;20018;-70
2022/11/12 04:59:22;;;;;;;29.55;7.25;;;8.00;99.90;;;;;;4995858;28;20152;-70
2022/11/12 05:01:47;;;;;;;15.07;5.60;;;7.90;99.90;;;;;;4978139;28;20023;-69
2022/11/12 05:04:13;;;;;;;32.72;7.05;;;8.00;99.90;;;;;;4995764;28;20033;-70
2022/11/12 05:06:50;;;;;;;20.45;6.80;;;7.90;99.90;;;;;;4995375;28;20120;-69
2022/11/12 05:09:17;;;;;;;15.85;5.28;;;8.00;99.90;;;;;;4978847;28;20023;-69
2022/11/12 05:11:43;;;;;;;16.25;5.03;;;8.10;99.90;;;;;;4995207;28;20057;-70
2022/11/12 05:14:08;;;;;;;15.05;5.45;;;8.10;99.90;;;;;;4977943;28;20088;-69
2022/11/12 05:16:34;;;;;;;24.05;6.22;;;8.10;99.90;;;;;;4978818;28;20088;-69
2022/11/12 05:19:00;;;;;;;28.77;6.60;;;8.10;99.90;;;;;;4977781;28;20033;-69
2022/11/12 05:24:10;;;;;;;31.92;6.03;;;7.90;99.90;;;;;;4995668;28;20415;-69
2022/11/12 05:26:35;;;;;;;19.65;5.70;;;7.90;99.90;;;;;;4977559;28;20022;-69
2022/11/12 05:29:01;;;;;;;26.63;6.50;;;7.80;99.90;;;;;;4977549;28;20022;-69
2022/11/12 05:31:27;;;;;;;40.55;7.00;;;7.80;99.90;;;;;;4977479;28;20023;-69
2022/11/12 05:33:52;;;;;;;22.15;5.78;;;7.80;99.90;;;;;;4977859;28;20080;-69
2022/11/12 05:36:18;;;;;;;53.35;7.47;;;7.70;99.90;;;;;;4977423;28;20023;-69
2022/11/12 05:38:43;;;;;;;27.63;6.20;;;7.70;99.90;;;;;;4977450;28;20049;-69
2022/11/12 05:41:09;;;;;;;27.10;6.53;;;7.80;99.90;;;;;;4994748;28;20034;-69
2022/11/12 05:43:34;;;;;;;33.25;6.88;;;7.80;99.90;;;;;;4976728;28;20022;-69
2022/11/12 05:46:00;;;;;;;26.45;6.70;;;7.80;99.90;;;;;;4977268;28;20030;-69
2022/11/12 05:48:25;;;;;;;17.02;5.85;;;7.80;99.90;;;;;;4994645;28;20018;-69
2022/11/12 05:50:52;;;;;;;22.50;6.15;;;8.00;99.90;;;;;;4977268;28;20520;-69
2022/11/12 05:53:18;;;;;;;22.02;5.75;;;8.00;99.90;;;;;;4977153;28;20026;-69
2022/11/12 05:55:43;;;;;;;32.88;6.50;;;8.00;99.90;;;;;;4977462;28;20022;-69
2022/11/12 05:58:09;;;;;;;33.22;5.90;;;8.00;99.90;;;;;;4977555;28;20030;-69
2022/11/12 06:00:37;;;;;;;21.80;6.28;;;8.00;99.90;;;;;;4978179;28;20127;-69
2022/11/12 06:03:07;;;;;;;27.08;6.40;;;8.00;99.90;;;;;;4995002;28;20026;-69
2022/11/12 06:05:33;;;;;;;19.77;5.45;;;7.90;99.90;;;;;;4977157;28;20084;-69
2022/11/12 06:07:59;;;;;;;19.08;8.20;;;7.90;99.90;;;;;;4976839;28;20050;-69
2022/11/12 06:10:25;;;;;;;23.55;6.68;;;7.90;99.90;;;;;;4976932;28;20058;-70
2022/11/12 06:12:51;;;;;;;28.35;6.72;;;7.90;99.90;;;;;;4976813;28;20030;-69
2022/11/12 06:15:18;;;;;;;27.52;6.80;;;8.00;99.90;;;;;;4976840;28;20023;-69
2022/11/12 06:17:43;;;;;;;17.95;6.43;;;8.00;99.90;;;;;;4976700;28;20034;-69
2022/11/12 06:20:09;;;;;;;25.95;6.78;;;8.00;99.90;;;;;;4994677;28;20085;-69
2022/11/12 06:22:35;;;;;;;30.98;7.03;;;8.00;99.90;;;;;;4976642;28;20034;-69
2022/11/12 06:25:00;;;;;;;16.83;6.32;;;8.00;99.90;;;;;;4994049;28;20023;-69
2022/11/12 06:27:26;;;;;;;18.17;7.25;;;7.90;99.90;;;;;;4976648;28;20445;-69
2022/11/12 06:29:52;;;;;;;28.80;7.10;;;8.00;99.90;;;;;;4976576;28;20042;-69
2022/11/12 06:32:17;;;;;;;15.07;6.03;;;8.00;99.90;;;;;;4976603;28;20081;-69
2022/11/12 06:34:43;;;;;;;25.80;6.57;;;8.00;99.90;;;;;;4994055;28;20033;-69
2022/11/12 06:37:09;;;;;;;27.85;6.65;;;7.80;99.90;;;;;;4976654;28;20034;-69
2022/11/12 06:39:34;;;;;;;21.00;5.95;;;7.90;99.90;;;;;;4977058;28;20073;-69
2022/11/12 06:42:00;;;;;;;31.75;6.72;;;7.90;99.90;;;;;;4994375;28;20035;-69
2022/11/12 06:44:26;;;;;;;12.93;5.97;;;8.00;99.90;;;;;;4976460;28;20073;-69
2022/11/12 06:46:52;;;;;;;31.80;6.78;;;7.90;99.90;;;;;;4976383;28;20464;-69
2022/11/12 06:49:17;;;;;;;22.73;6.07;;;8.00;99.90;;;;;;4976526;28;20022;-69
2022/11/12 06:51:43;;;;;;;12.77;5.20;;;8.00;99.90;;;;;;4993844;28;20474;-69
2022/11/12 06:54:08;;;;;;;32.28;7.18;;;8.00;99.90;;;;;;4976550;28;20026;-69
2022/11/12 06:56:34;;;;;;;39.70;6.78;;;8.00;99.90;;;;;;4997844;28;20033;-69
2022/11/12 06:58:59;;;;;;;25.25;7.40;;;7.90;99.90;;;;;;4981226;28;20117;-69
2022/11/12 07:01:25;;;;;;;30.83;6.97;;;7.90;99.90;;;;;;4997722;28;20027;-69
2022/11/12 07:03:52;;;;;;;19.17;6.68;;;7.80;99.90;;;;;;4998006;28;20026;-69
2022/11/12 07:06:19;;;;;;;23.88;6.53;;;7.70;99.90;;;;;;4980190;28;20036;-69
2022/11/12 07:08:46;;;;;;;43.75;7.75;;;7.60;99.90;;;;;;4997628;28;20101;-69
2022/11/12 07:11:12;;;;;;;22.50;7.03;;;7.60;99.90;;;;;;4997648;28;20053;-69
2022/11/12 07:13:38;;;;;;;18.65;6.85;;;7.60;99.90;;;;;;4997845;28;20105;-69
2022/11/12 07:16:05;;;;;;;36.85;7.10;;;7.70;99.90;;;;;;4980974;28;20118;-69
2022/11/12 07:18:33;;;;;;;23.23;5.82;;;7.70;99.90;;;;;;4980188;28;20069;-70
2022/11/12 07:21:09;;;;;;;28.25;7.10;;;7.70;99.90;;;;;;4980818;28;20042;-69
2022/11/12 07:23:36;;;;;;;27.00;7.05;;;7.60;99.90;;;;;;4979926;28;20026;-69
2022/11/12 07:26:12;;;;;;;14.40;6.50;;;7.70;99.90;;;;;;4997396;28;20022;-69
2022/11/12 07:28:38;;;;;;;31.15;7.25;;;7.70;99.90;;;;;;4979828;28;20022;-69
2022/11/12 07:31:06;;;;;;;19.10;6.00;;;7.80;99.90;;;;;;4980470;28;20516;-70
2022/11/12 07:33:32;;;;;;;18.38;7.35;;;7.80;99.90;;;;;;4979610;28;20023;-69
2022/11/12 07:36:09;;;;;;;18.80;6.95;;;7.70;99.90;;;;;;4997112;28;20038;-69
2022/11/12 07:38:37;;;;;;;16.23;7.00;;;7.80;99.90;;;;;;4997469;28;20046;-69
2022/11/12 07:41:07;;;;;;;23.80;5.90;;;7.70;99.90;;;;;;4997181;28;20093;-69
2022/11/12 07:43:35;;;;;;;34.85;7.82;;;7.90;99.90;;;;;;4980402;28;20023;-69
2022/11/12 07:46:03;;;;;;;25.73;7.63;;;7.90;99.90;;;;;;4979322;28;20030;-69
2022/11/12 07:48:29;;;;;;;20.73;6.72;;;8.00;99.90;;;;;;4997082;28;20022;-69
2022/11/12 07:51:07;;;;;;;15.98;6.88;;;8.00;99.90;;;;;;4979310;28;20018;-70
2022/11/12 07:53:33;;;;;;;14.23;6.13;;;8.00;99.90;;;;;;4997084;28;20018;-69
2022/11/12 07:56:01;;;;;;;21.00;6.07;;;8.10;99.90;;;;;;4996793;28;20138;-69
2022/11/12 07:58:29;;;;;;;21.50;6.85;;;8.10;99.90;;;;;;4996797;28;20041;-69
2022/11/12 08:00:55;;;;;;;29.08;8.43;;;8.10;99.90;;;;;;4979117;28;20116;-69
2022/11/12 08:03:20;;;;;;;19.05;7.05;;;8.20;99.90;;;;;;4979232;28;20073;-69
2022/11/12 08:05:46;;;;;;;20.40;7.80;;;8.20;99.90;;;;;;4979322;28;20026;-69
2022/11/12 08:08:12;;;;;;;17.70;7.45;;;8.20;99.90;;;;;;4978676;28;20049;-69
2022/11/12 08:10:37;;;;;;;19.85;7.22;;;8.30;99.90;;;;;;4979143;28;20421;-69
2022/11/12 08:13:03;;;;;;;25.15;6.97;;;8.30;99.90;;;;;;4979103;28;20019;-69
2022/11/12 08:15:29;;;;;;;19.83;7.18;;;8.20;99.90;;;;;;4979613;28;20053;-70
2022/11/12 08:17:55;;;;;;;20.98;7.90;;;8.20;99.90;;;;;;4978962;28;20069;-70
2022/11/12 08:20:20;;;;;;;24.52;7.50;;;8.10;99.90;;;;;;4979204;28;20069;-69
2022/11/12 08:22:46;;;;;;;23.42;7.75;;;8.10;99.90;;;;;;4979375;28;20040;-69
2022/11/12 08:25:12;;;;;;;48.15;9.00;;;8.20;99.90;;;;;;4978900;28;20022;-69
2022/11/12 08:27:38;;;;;;;20.33;7.63;;;8.10;99.90;;;;;;4997307;28;20014;-69
2022/11/12 08:30:04;;;;;;;22.52;7.95;;;8.00;99.90;;;;;;4996223;28;20022;-69
2022/11/12 08:32:29;;;;;;;22.00;8.00;;;8.00;99.90;;;;;;4978911;28;20040;-70
2022/11/12 08:34:55;;;;;;;26.75;7.75;;;8.10;99.90;;;;;;4978765;28;20117;-69
2022/11/12 08:37:20;;;;;;;30.13;8.57;;;8.10;99.90;;;;;;4978679;28;20018;-69
2022/11/12 08:39:46;;;;;;;30.77;8.18;;;8.10;99.90;;;;;;4995955;28;20053;-69
2022/11/12 08:42:12;;;;;;;23.90;8.57;;;8.00;99.90;;;;;;4978398;28;20485;-69
2022/11/12 08:44:37;;;;;;;28.67;8.70;;;8.00;99.90;;;;;;4995933;28;20034;-69
2022/11/12 08:47:03;;;;;;;22.67;9.55;;;7.90;99.90;;;;;;4996279;28;20062;-70
2022/11/12 08:49:28;;;;;;;17.50;7.38;;;7.90;99.90;;;;;;4979509;28;20022;-70
2022/11/12 08:51:54;;;;;;;16.83;7.20;;;7.90;99.90;;;;;;4978280;28;20090;-70
2022/11/12 08:54:20;;;;;;;20.60;8.60;;;8.10;99.90;;;;;;4978200;28;20552;-70
2022/11/12 08:56:46;;;;;;;25.30;7.53;;;8.20;99.90;;;;;;4995646;28;20036;-70
2022/11/12 08:59:12;;;;;;;20.48;7.35;;;8.20;99.90;;;;;;4995687;28;20030;-70
2022/11/12 09:01:38;;;;;;;21.48;7.88;;;8.30;99.90;;;;;;4978295;28;20026;-70
2022/11/12 09:04:03;;;;;;;18.17;8.13;;;8.30;99.90;;;;;;4978063;28;20022;-70
2022/11/12 09:06:29;;;;;;;45.95;9.85;;;8.30;99.90;;;;;;4978046;28;20026;-71
2022/11/12 09:08:54;;;;;;;18.50;7.05;;;8.30;99.90;;;;;;4978049;28;20026;-71
2022/11/12 09:11:20;;;;;;;18.83;7.72;;;8.30;99.90;;;;;;4978027;28;20022;-71
2022/11/12 09:13:45;;;;;;;27.40;8.07;;;8.30;99.90;;;;;;4978541;28;20022;-71
2022/11/12 09:16:11;;;;;;;14.63;7.63;;;8.20;99.90;;;;;;4978087;28;20037;-71
2022/11/12 09:18:36;;;;;;;19.55;8.30;;;8.20;99.90;;;;;;4977012;28;20049;-71
2022/11/12 09:21:09;;;;;;;20.83;7.30;;;8.30;99.90;;;;;;5002144;23;20042;-67
2022/11/12 09:23:35;;;;;;;26.00;8.52;;;8.30;99.90;;;;;;4975287;28;20038;-68
2022/11/12 09:26:00;;;;;;;18.98;8.23;;;8.10;99.90;;;;;;4958360;28;20039;-68
2022/11/12 09:28:26;;;;;;;16.50;8.07;;;8.20;99.90;;;;;;4958442;28;20106;-68
2022/11/12 09:30:53;;;;;;;18.38;8.10;;;8.30;99.90;;;;;;4958259;28;20393;-68
2022/11/12 09:33:28;;;;;;;19.38;7.20;;;8.30;99.90;;;;;;4975603;28;20031;-68
2022/11/12 09:35:54;;;;;;;17.63;7.45;;;8.20;99.90;;;;;;4959198;28;20033;-68
2022/11/12 09:38:21;;;;;;;19.02;8.30;;;8.30;99.90;;;;;;4975596;28;20030;-68
2022/11/12 09:41:08;;;;;;;18.48;8.68;;;8.30;99.90;;;;;;4958478;28;20054;-68
2022/11/12 09:43:44;;;;;;;18.98;8.35;;;8.30;99.90;;;;;;4958182;28;20022;-68
2022/11/12 09:46:48;;;;;;;17.50;7.63;;;8.30;99.90;;;;;;4975656;28;20027;-68
2022/11/12 09:49:29;;;;;;;24.77;7.82;;;8.40;99.90;;;;;;4958003;28;20029;-68
2022/11/12 09:52:02;;;;;;;12.88;6.68;;;8.30;99.90;;;;;;4958065;28;20050;-68
2022/11/12 09:54:31;;;;;;;22.27;7.25;;;8.30;99.90;;;;;;4958320;28;20050;-68
2022/11/12 09:56:57;;;;;;;12.60;5.93;;;8.30;99.90;;;;;;4957849;28;20038;-68
2022/11/12 09:59:28;;;;;;;12.00;6.40;;;8.30;99.90;;;;;;4975482;28;20094;-68
2022/11/12 10:02:00;;;;;;;13.98;6.68;;;8.40;99.90;;;;;;4975330;28;20478;-68
2022/11/12 10:04:44;;;;;;;20.35;6.80;;;8.60;99.90;;;;;;4957892;28;20038;-68
2022/11/12 10:07:21;;;;;;;16.40;6.80;;;8.60;99.90;;;;;;4957707;28;20026;-68
2022/11/12 10:09:58;;;;;;;17.58;6.95;;;8.60;99.90;;;;;;4957753;28;20027;-68
2022/11/12 10:12:31;;;;;;;14.65;7.00;;;8.50;99.90;;;;;;4974957;28;20474;-68
2022/11/12 10:18:38;;;;;;;15.75;6.80;;;8.60;99.90;;;;;;4974986;28;20037;-68
2022/11/12 10:21:39;;;;;;;14.85;6.85;;;8.60;99.90;;;;;;4957348;28;20034;-68
2022/11/12 10:24:08;;;;;;;15.80;7.13;;;8.70;99.90;;;;;;4905947;28;20048;-68
2022/11/12 10:26:36;;;;;;;15.00;6.82;;;8.60;99.90;;;;;;4975160;28;20081;-68
2022/11/12 10:29:12;;;;;;;14.20;6.85;;;8.70;99.90;;;;;;4974427;28;20047;-68
2022/11/12 10:31:37;;;;;;;18.02;6.50;;;8.60;99.90;;;;;;4957322;28;20023;-68
2022/11/12 10:34:12;;;;;;;13.45;6.82;;;8.60;99.90;;;;;;4974992;28;20081;-68
2022/11/12 10:36:42;;;;;;;14.40;7.30;;;8.70;99.90;;;;;;4957670;28;20026;-68
2022/11/12 10:39:08;;;;;;;17.90;7.53;;;8.70;99.90;;;;;;4957355;28;20081;-68
2022/11/12 10:41:34;;;;;;;15.10;6.88;;;8.60;99.90;;;;;;4974694;28;20027;-68
2022/11/12 10:44:02;;;;;;;16.67;7.10;;;8.60;99.90;;;;;;4957217;28;20027;-68
2022/11/12 10:46:29;;;;;;;12.93;7.10;;;8.60;99.90;;;;;;4957459;28;20066;-68
2022/11/12 10:49:01;;;;;;;17.50;8.32;;;8.70;99.90;;;;;;4974592;28;20033;-68
2022/11/12 10:51:35;;;;;;;17.65;7.47;;;8.70;99.90;;;;;;4974472;28;20023;-68
2022/11/12 10:54:25;;;;;;;17.58;8.07;;;8.70;99.90;;;;;;4974504;28;20098;-68
2022/11/12 10:56:51;;;;;;;16.60;7.78;;;8.70;99.90;;;;;;4957088;28;20094;-68
2022/11/12 10:59:19;;;;;;;17.90;7.55;;;8.80;99.90;;;;;;4957071;28;20031;-68
2022/11/12 11:01:52;;;;;;;15.82;7.57;;;8.80;99.90;;;;;;4974357;28;20094;-68
2022/11/12 11:04:28;;;;;;;19.30;8.32;;;8.80;99.90;;;;;;4974717;28;20062;-68
2022/11/12 11:07:23;;;;;;;17.70;8.82;;;8.80;99.90;;;;;;4956954;28;20031;-69
2022/11/12 11:09:57;;;;;;;16.92;8.15;;;8.80;99.90;;;;;;4957034;28;20026;-68
2022/11/12 11:12:28;;;;;;;15.88;7.72;;;8.70;99.90;;;;;;4957443;28;20050;-68
2022/11/12 11:15:10;;;;;;;17.30;7.43;;;8.80;99.90;;;;;;4957060;28;20023;-68
2022/11/12 11:17:35;;;;;;;20.65;8.68;;;8.80;99.90;;;;;;4974292;28;20266;-68
2022/11/12 11:20:12;;;;;;;17.08;8.30;;;8.90;99.90;;;;;;4974566;28;20109;-68
2022/11/12 11:22:44;;;;;;;18.15;8.32;;;8.80;99.90;;;;;;4957020;28;20030;-68
2022/11/12 11:25:27;;;;;;;17.95;8.20;;;8.80;99.90;;;;;;4956898;28;20113;-68
2022/11/12 11:28:18;;;;;;;16.58;8.23;;;8.80;99.90;;;;;;4957608;28;20019;-68
2022/11/12 11:30:55;;;;;;;18.65;9.18;;;8.70;99.90;;;;;;4956885;28;20109;-68
2022/11/12 11:33:59;;;;;;;21.73;9.60;;;8.80;99.90;;;;;;4956766;28;20031;-68
2022/11/12 11:36:33;;;;;;;17.75;8.25;;;8.80;99.90;;;;;;4956994;28;20047;-68
2022/11/12 11:39:08;;;;;;;19.50;9.10;;;8.80;99.90;;;;;;4957780;28;20027;-68
2022/11/12 11:42:07;;;;;;;23.85;10.68;;;8.90;99.90;;;;;;4957410;28;20027;-68
2022/11/12 11:45:00;;;;;;;23.58;10.07;;;8.90;99.90;;;;;;4978030;28;20031;-68
2022/11/12 11:47:25;;;;;;;21.88;9.82;;;9.00;99.90;;;;;;4977545;28;20077;-68
2022/11/12 11:49:56;;;;;;;20.95;10.10;;;9.00;99.90;;;;;;4961119;28;20023;-68
2022/11/12 11:52:44;;;;;;;21.23;9.98;;;9.10;99.90;;;;;;4977646;28;20023;-68
2022/11/12 11:55:18;;;;;;;22.48;9.63;;;9.10;99.90;;;;;;4977670;28;20101;-68
2022/11/12 11:58:02;;;;;;;20.92;10.90;;;9.10;99.90;;;;;;4961322;28;20027;-68
2022/11/12 12:00:59;;;;;;;20.38;9.82;;;9.10;99.90;;;;;;4961039;28;20027;-68
2022/11/12 12:03:30;;;;;;;21.02;10.02;;;9.10;99.90;;;;;;4952978;28;20062;-68
2022/11/12 12:06:19;;;;;;;19.92;9.55;;;9.10;99.90;;;;;;4961628;28;20109;-68
2022/11/12 12:08:48;;;;;;;20.77;9.98;;;9.10;99.90;;;;;;4962034;28;20042;-68
2022/11/12 12:11:29;;;;;;;26.35;10.57;;;8.90;99.90;;;;;;4978326;28;20038;-68
2022/11/12 12:14:12;;;;;;;18.50;9.35;;;8.90;99.90;;;;;;4960373;28;20026;-68
2022/11/12 12:16:52;;;;;;;20.05;9.95;;;8.80;99.90;;;;;;4959740;28;20170;-68
2022/11/12 12:19:58;;;;;;;22.67;9.73;;;8.90;99.90;;;;;;4977227;28;20078;-68
2022/11/12 12:22:36;;;;;;;21.17;9.55;;;9.00;99.90;;;;;;4960282;28;20091;-68
2022/11/12 12:25:26;;;;;;;17.75;8.50;;;9.10;99.90;;;;;;4977185;28;20037;-68
2022/11/12 12:28:14;;;;;;;21.30;9.27;;;9.10;99.90;;;;;;4959583;28;20035;-67
2022/11/12 12:30:46;;;;;;;18.15;8.98;;;9.10;99.90;;;;;;4959644;28;20019;-67
2022/11/12 12:33:48;;;;;;;20.63;9.60;;;9.20;99.90;;;;;;4959287;28;20082;-67
2022/11/12 12:36:24;;;;;;;18.08;9.20;;;9.00;99.90;;;;;;4976509;28;20066;-67
2022/11/12 12:39:10;;;;;;;19.17;9.48;;;9.00;99.90;;;;;;4976954;28;20023;-67
2022/11/12 12:41:53;;;;;;;22.13;10.10;;;9.10;99.90;;;;;;4976878;28;20118;-67
2022/11/12 12:44:18;;;;;;;17.75;8.98;;;9.00;99.90;;;;;;4976642;28;20077;-67
2022/11/12 12:46:54;;;;;;;21.65;8.93;;;9.10;99.90;;;;;;4976347;28;20027;-67
2022/11/12 12:49:32;;;;;;;19.70;10.20;;;9.20;99.90;;;;;;4976486;28;20015;-67
2022/11/12 12:51:58;;;;;;;16.98;8.80;;;9.20;99.90;;;;;;4976769;28;20023;-67
2022/11/12 12:54:36;;;;;;;19.27;9.05;;;9.30;99.90;;;;;;4976496;28;20027;-67
2022/11/12 12:57:03;;;;;;;18.48;8.60;;;9.30;99.90;;;;;;4958982;28;20038;-67
2022/11/12 12:59:29;;;;;;;17.98;9.15;;;9.20;99.90;;;;;;4958849;28;20030;-67
2022/11/12 13:02:18;;;;;;;19.10;9.43;;;9.30;99.90;;;;;;4958878;28;20402;-67
2022/11/12 13:04:55;;;;;;;16.38;8.60;;;9.30;99.90;;;;;;4958889;28;20043;-67
2022/11/12 13:07:46;;;;;;;17.25;8.70;;;9.30;99.90;;;;;;4959606;28;20030;-67
2022/11/12 13:10:52;;;;;;;16.13;9.27;;;9.20;99.90;;;;;;4958637;28;20054;-67
2022/11/12 13:13:18;;;;;;;19.80;9.18;;;9.20;99.90;;;;;;4975932;28;20046;-68
2022/11/12 13:15:55;;;;;;;16.90;8.23;;;9.30;99.90;;;;;;4959275;28;20071;-68
2022/11/12 13:18:39;;;;;;;14.93;7.80;;;9.40;99.90;;;;;;4958599;28;20031;-68
2022/11/12 13:21:13;;;;;;;16.33;8.35;;;9.40;99.90;;;;;;4958306;28;20034;-68
2022/11/12 13:24:06;;;;;;;15.27;8.20;;;9.40;99.90;;;;;;4975830;28;20034;-68
2022/11/12 13:26:50;;;;;;;15.73;8.77;;;9.40;99.90;;;;;;4958368;28;20085;-68
2022/11/12 13:29:21;;;;;;;14.20;7.90;;;9.50;99.90;;;;;;4975579;28;20049;-68